createdAt,value
2022-12-31T00:01:08.913Z,4.10
2022-12-31T00:03:39.201Z,3.35
2022-12-31T00:06:17.597Z,4.60
2022-12-31T00:08:47.744Z,4.50
2022-12-31T00:11:14.966Z,4.05
2022-12-31T00:13:43.257Z,4.18
2022-12-31T00:16:13.855Z,3.97
2022-12-31T00:18:43.547Z,4.10
2022-12-31T00:21:10.926Z,4.30
2022-12-31T00:23:38.148Z,4.65
2022-12-31T00:26:15.309Z,5.97
2022-12-31T00:28:42.649Z,3.95
2022-12-31T00:31:15.440Z,3.63
2022-12-31T00:33:43.151Z,3.65
2022-12-31T00:36:11.934Z,2.60
2022-12-31T00:38:39.665Z,2.17
2022-12-31T00:41:15.634Z,2.53
2022-12-31T00:43:43.078Z,2.33
2022-12-31T00:46:10.396Z,2.10
2022-12-31T00:48:37.736Z,2.40
2022-12-31T00:51:06.708Z,2.35
2022-12-31T00:53:35.048Z,1.90
2022-12-31T00:56:14.913Z,2.58
2022-12-31T00:58:42.478Z,2.65
2022-12-31T01:01:21.168Z,2.05
2022-12-31T01:03:49.418Z,2.70
2022-12-31T01:06:16.892Z,2.55
2022-12-31T01:08:44.332Z,3.08
2022-12-31T01:11:24.634Z,3.70
2022-12-31T01:14:15.238Z,2.85
2022-12-31T01:16:44.112Z,2.85
2022-12-31T01:19:13.429Z,3.55
2022-12-31T01:21:41.333Z,3.42
2022-12-31T01:24:09.364Z,3.63
2022-12-31T01:26:37.017Z,4.15
2022-12-31T01:29:07.038Z,4.00
2022-12-31T01:31:34.461Z,4.22
2022-12-31T01:34:01.863Z,4.45
2022-12-31T01:36:30.602Z,3.90
2022-12-31T01:38:59.167Z,4.15
2022-12-31T01:41:28.062Z,4.30
2022-12-31T01:44:18.412Z,4.43
2022-12-31T01:46:47.882Z,4.45
2022-12-31T01:49:17.991Z,4.32
2022-12-31T01:51:47.609Z,4.55
2022-12-31T01:54:18.994Z,3.65
2022-12-31T01:56:48.692Z,4.07
2022-12-31T01:59:17.853Z,3.70
2022-12-31T02:01:50.130Z,3.70
2022-12-31T02:04:17.372Z,4.30
2022-12-31T02:06:55.789Z,2.83
2022-12-31T02:09:30.179Z,3.47
2022-12-31T02:11:57.465Z,2.15
2022-12-31T02:14:26.657Z,3.28
2022-12-31T02:16:56.543Z,2.97
2022-12-31T02:19:23.608Z,3.45
2022-12-31T02:22:05.783Z,3.40
2022-12-31T02:24:38.593Z,3.10
2022-12-31T02:27:23.951Z,2.88
2022-12-31T02:30:08.793Z,2.58
2022-12-31T02:32:50.936Z,2.22
2022-12-31T02:35:42.166Z,1.98
2022-12-31T02:38:13.682Z,1.45
2022-12-31T02:40:40.945Z,1.70
2022-12-31T02:43:08.092Z,1.50
2022-12-31T02:45:38.481Z,1.48
2022-12-31T02:48:23.778Z,1.40
2022-12-31T02:51:11.663Z,1.52
2022-12-31T02:53:45.199Z,1.42
2022-12-31T02:56:35.709Z,1.60
2022-12-31T02:59:41.759Z,1.13
2022-12-31T03:02:14.024Z,1.40
2022-12-31T03:04:43.454Z,1.42
2022-12-31T03:07:15.334Z,1.20
2022-12-31T03:09:42.497Z,1.00
2022-12-31T03:12:29.446Z,1.20
2022-12-31T03:14:56.609Z,1.00
2022-12-31T03:17:24.162Z,1.08
2022-12-31T03:20:12.296Z,1.30
2022-12-31T03:22:40.865Z,1.45
2022-12-31T03:25:30.062Z,1.40
2022-12-31T03:28:00.566Z,1.35
2022-12-31T03:30:28.207Z,1.40
2022-12-31T03:32:58.964Z,1.25
2022-12-31T03:35:27.737Z,1.73
2022-12-31T03:37:55.073Z,1.50
2022-12-31T03:40:23.540Z,1.70
2022-12-31T03:42:52.091Z,1.73
2022-12-31T03:45:19.404Z,1.42
2022-12-31T03:47:47.681Z,1.83
2022-12-31T03:50:15.967Z,1.77
2022-12-31T03:52:43.233Z,2.05
2022-12-31T03:55:12.399Z,2.15
2022-12-31T03:57:43.268Z,1.85
2022-12-31T04:00:12.692Z,1.35
2022-12-31T04:02:40.106Z,2.08
2022-12-31T04:05:11.947Z,1.40
2022-12-31T04:07:41.470Z,1.33
2022-12-31T04:10:09.523Z,1.67
2022-12-31T04:12:37.080Z,1.60
2022-12-31T04:15:05.385Z,2.20
2022-12-31T04:17:32.627Z,1.80
2022-12-31T04:20:02.081Z,1.90
2022-12-31T04:22:30.368Z,2.20
2022-12-31T04:24:57.585Z,2.40
2022-12-31T04:27:24.699Z,2.35
2022-12-31T04:29:51.740Z,3.05
2022-12-31T04:32:19.015Z,2.55
2022-12-31T04:34:46.120Z,3.17
2022-12-31T04:37:13.534Z,3.75
2022-12-31T04:39:40.648Z,4.07
2022-12-31T04:42:07.900Z,4.85
2022-12-31T04:44:36.720Z,4.07
2022-12-31T04:47:04.284Z,4.00
2022-12-31T04:49:31.297Z,4.25
2022-12-31T04:51:58.443Z,5.57
2022-12-31T04:54:25.521Z,4.55
2022-12-31T04:56:52.726Z,4.35
2022-12-31T04:59:19.863Z,3.45
2022-12-31T05:01:47.068Z,3.58
2022-12-31T05:04:14.395Z,4.28
2022-12-31T05:06:41.526Z,3.28
2022-12-31T05:09:08.612Z,3.50
2022-12-31T05:11:37.916Z,3.78
2022-12-31T05:14:12.353Z,4.15
2022-12-31T05:16:39.483Z,4.25
2022-12-31T05:19:09.548Z,4.20
2022-12-31T05:21:37.031Z,4.78
2022-12-31T05:24:04.260Z,3.67
2022-12-31T05:26:31.344Z,3.70
2022-12-31T05:29:00.358Z,3.22
2022-12-31T05:31:27.557Z,2.83
2022-12-31T05:33:54.641Z,3.40
2022-12-31T05:36:24.416Z,3.53
2022-12-31T05:38:51.585Z,3.38
